• Join FlightAware (Why Join?)
  • Login
  • US Flag 
01:48AM EDT


 

Airport Tracker/Info


-or-


 

Live Flight TrackerFlight Track Log ✈ SWA896 ✈ 23-Apr-2013 ✈ KLAS - KSMF

Flight Track Log - Related Links

Times and Time Zones

All times are in EDT time to prevent confusion due to time zone crossing. See the SWA896 flight status page for this flight to view local times or setup timezone preferences in your user account.

Time Position Orientation Groundspeed Altitude Reporting Facility
EDT Latitude Longitude Course Direction KTS MPH feet Rate Location/Type
02:13PM 36.0775 -115.1144 270° West 154 177 3,400  Level Los Angeles Center
02:14PM 36.0778 -115.0667 90° East 211 243 4,200 1,860 Climbing Los Angeles Center
02:15PM 36.0767 -114.9881 91° East 239 275 6,500 2,220 Climbing Los Angeles Center
02:16PM 36.0197 -114.9269 139° Southeast 283 326 8,600 2,100 Climbing Los Angeles Center
02:17PM 35.9400 -114.9356 185° South 308 354 10,900 1,920 Climbing Los Angeles Center
02:18PM 35.9239 -115.0522 260° West 344 396 12,600 2,340 Climbing Los Angeles Center
02:19PM 35.8834 -115.7169 270° West  Level FlightAware Approximate
02:19PM 35.9194 -115.1853 268° West 374 430 15,800  Level Los Angeles Center
02:20PM 35.9144 -115.3447 268° West 385 443 18,800 2,580 Climbing Los Angeles Center
02:21PM 35.9114 -115.4842 268° West 397 457 21,200 2,460 Climbing Los Angeles Center
02:22PM 35.9058 -115.6325 267° West 408 470 23,900 1,980 Climbing Los Angeles Center
02:23PM 35.9022 -115.7700 268° West 413 475 25,400 1,440 Climbing Los Angeles Center
02:24PM 35.8969 -115.9269 268° West 424 488 27,000 1,920 Climbing Los Angeles Center
02:25PM 35.9600 -116.0422 304° West 416 479 29,400 1,740 Climbing Los Angeles Center
02:26PM 36.0392 -116.1356 316° Northwest 414 476 30,600 1,440 Climbing Los Angeles Center
02:27PM 36.1269 -116.2350 318° Northwest 412 474 32,400 1,560 Climbing Los Angeles Center
02:28PM 36.2069 -116.3281 317° Northwest 400 460 33,900 720 Climbing Los Angeles Center
02:29PM 36.3039 -116.4400 317° Northwest 398 458 34,000  Climbing Los Angeles Center
02:30PM 36.3842 -116.5353 316° Northwest 400 460 34,000  Level Los Angeles Center
02:31PM 36.4650 -116.6292 317° Northwest 399 459 34,000  Level Los Angeles Center
02:32PM 36.5453 -116.7228 317° Northwest 401 461 34,000  Level Los Angeles Center
02:33PM 36.6569 -116.8181 326° Northwest 409 471 34,000  Level Los Angeles Center
02:34PM 36.7553 -116.8903 330° Northwest 410 472 34,000  Level Los Angeles Center
02:35PM 36.8528 -116.9675 328° Northwest 412 474 34,000  Level Los Angeles Center
02:36PM 36.8922 -116.9986 328° Northwest 412 474 34,000  Level Oakland Center
02:37PM 37.0092 -117.0881 329° Northwest 410 472 34,000  Level Oakland Center
02:38PM 37.1050 -117.1611 329° Northwest 406 467 34,000  Level Oakland Center
02:39PM 37.2000 -117.2364 328° Northwest 402 463 34,000  Level Oakland Center
02:40PM 37.2967 -117.3103 329° Northwest 405 466 34,000  Level Oakland Center
02:41PM 37.3708 -117.4111 313° West 394 453 34,000  Level Oakland Center
02:42PM 37.4428 -117.5206 310° West 401 461 34,000  Level Oakland Center
02:43PM 37.5133 -117.6278 310° West 398 458 34,000  Level Oakland Center
02:44PM 37.5847 -117.7364 310° West 399 459 34,000 -120 Level Oakland Center
02:45PM 37.6550 -117.8447 309° West 399 459 33,800 -600 Descending Oakland Center
02:46PM 37.7272 -117.9536 310° West 402 463 32,800 -900 Descending Oakland Center
02:47PM 37.7992 -118.0642 309° West 404 465 32,000 -420 Descending Oakland Center
02:48PM 37.8708 -118.1764 309° West 406 467 32,000  Level Oakland Center
02:49PM 37.9422 -118.2864 309° West 404 465 32,000 -300 Level Oakland Center
02:50PM 38.0264 -118.4189 309° West 403 464 31,400 -840 Descending Oakland Center
02:51PM 38.0978 -118.5289 310° West 402 463 30,400 -720 Descending Oakland Center
02:52PM 38.1675 -118.6383 309° West 402 463 30,000 -240 Descending Oakland Center
02:53PM 38.2369 -118.7478 309° West 400 460 30,000  Level Oakland Center
02:54PM 38.3064 -118.8583 309° West 400 460 30,000  Level Oakland Center
02:55PM 38.3772 -118.9703 309° West 403 464 30,000  Level Oakland Center
02:56PM 38.4461 -119.0806 309° West 400 460 30,000  Level Oakland Center
02:57PM 38.5161 -119.1911 309° West 398 458 30,000  Level Oakland Center
02:58PM 38.5850 -119.3019 309° West 398 458 30,000  Level Oakland Center
02:59PM 38.6547 -119.4125 309° West 399 459 30,000 -540 Level Oakland Center
03:00PM 38.6933 -119.5489 290° West 409 471 29,000 -1,020 Descending Oakland Center
03:01PM 38.7233 -119.6900 285° West 410 472 28,000 -1,080 Descending Oakland Center
03:03PM 38.7581 -119.8519 285° West 414 476 26,900 -1,080 Descending Oakland Center
03:04PM 38.7881 -119.9925 285° West 410 472 25,900 -1,080 Descending Oakland Center
03:05PM 38.8172 -120.1325 285° West 409 471 24,800 -1,380 Descending Oakland Center
03:06PM 38.8458 -120.2711 285° West 406 467 23,100 -1,980 Descending Oakland Center
03:07PM 38.8742 -120.4050 285° West 393 452 20,800 -2,280 Descending Oakland Center
03:08PM 38.8994 -120.5336 284° West 378 435 18,500 -2,520 Descending Oakland Center
03:09PM 38.9294 -120.6819 285° West 362 417 15,700 -2,460 Descending Oakland Center
03:10PM 38.9544 -120.8042 285° West 358 412 13,500 -2,220 Descending Oakland Center
03:11PM 38.9772 -120.9239 284° West 351 404 11,200 -1,260 Descending Oakland Center
03:12PM 38.9817 -121.0436 273° West 352 405 11,000 -600 Descending Oakland Center
03:13PM 38.9517 -121.1650 252° West 358 412 10,000 -480 Descending Oakland Center
03:14PM 38.9167 -121.3000 252° West 343 395 10,000 -420 Level Northern Cal TRACON
03:15PM 38.8833 -121.4000 247° West 296 341 9,200 -1,080 Descending Northern Cal TRACON
03:16PM 38.8833 -121.5000 270° West 284 327 8,000 -1,500 Descending Northern Cal TRACON
03:17PM 38.8667 -121.6000 258° West 281 323 6,300 -1,620 Descending Northern Cal TRACON
03:18PM 38.8333 -121.6833 243° Southwest 285 328 4,700 -1,440 Descending Northern Cal TRACON
03:19PM 38.7500 -121.7000 189° South 276 318 3,500 -900 Descending Northern Cal TRACON
03:20PM 38.6833 -121.7000 180° South 250 288 3,000 -840 Descending Northern Cal TRACON
03:21PM 38.6333 -121.6667 152° Southeast 220 253 1,900 -1,080 Descending Northern Cal TRACON
03:22PM 38.6333 -121.6167 90° East 164 189 900 -900 Descending Northern Cal TRACON
03:23PM 38.6833 -121.6000 15° North 149 171 200 -720 Descending Northern Cal TRACON